Terminal Aerodrome Forecast
Issued by NWS

Home | Current Version | Previous Version | Text Only | Print | Product List | Glossary On
Versions: 1 2 3 4 5 6 7 8 9 10 11 12 13 14 15 16 17 18 19 20 21 22 23 24
000
FTUS43 KDLH 280851 AAA
TAFBRD
TAF AMD
KBRD 280851Z 2809/2906 15008KT P6SM SCT012 BKN035
      TEMPO 2809/2811 BKN012
     FM281100 17009KT P6SM VCSH SCT007 OVC050
      TEMPO 2811/2815 4SM TSRA BR BKN007 OVC020CB
     FM281500 18015G24KT P6SM VCTS SCT020 BKN050CB
     FM290000 22012KT P6SM SCT100=

USA.gov is the U.S. government's official web portal to all federal, state and local government web resources and services.